メインページ
METAR-TAF:

METAR-TAF

空港 :

ケープタウン, 南アフリカ共和国

ケープタウン国際空港

緯度: 33-59S, 経度: 018-36E, 海抜: 42m

現時点の気象観測

当レポートは27分前の03:00(UTC)に作成
の風 21kt
気温 20°C
湿度 68%
気圧 1011 hPa
視程10km以上
1,500メートル以下は雲なし、積乱雲なし

METAR: FACT 170300Z 17021KT CAVOK 20/14 Q1011 NOSIG

時間: 05:27 (03:27 UTC)

予報

当レポートは5時間27分前の22:00(UTC)に作成
予報は17日の 00時(UTC)から 18日の 06時(UTC)まで有効
の風 10kt
視程10km以上
1,500メートル以下は雲なし、積乱雲なし
17日の 00時(UTC)から 17日の 05時(UTC)まで一時的に
南/南東の風 20kt、最大31ktの突風を伴う
17日の 10時(UTC)から 17日の 12時(UTC)まで徐々に
の風 18kt
17日の 22時(UTC)から 17日の 24時(UTC)まで徐々に
南/南西の風 8kt

TAF: FACT 162200Z 1700/1806 17010KT CAVOK TEMPO 1700/1705 15020G31KT BECMG 1710/1712 19018KT BECMG 1722/1724 20008KT TX30/1712Z TN17/1704Z

4,000以上の空港の気象観測と天気予報(METAR報とTAF報)

利用可能な観測所は地図上に黄色い丸と赤い丸で示す。

丸の上にカーソルを重ねると観測所名を参照できる。

次にクリックすると気象観測と天気予報を参照できる。

マップの切り替え:黒色「×」印の緑ボタンをクリックして拡大、「-」印の緑ボタンをクリックして縮小、緑色の三角印をクリックして隣りの地図に切り替え


METAR-TAF: